OIBL  Bandar Lengeh  Airport

Bandar Lengeh, Iran

Add Bookmark
ICAO OIBL
IATA BDH
Type Airport
Status Operational
Latitude
26° 31' 55" N
26.532000
Longitude
54° 49' 29" E
54.824799
Local (DST + 5) UTC (GMT + 4)
Jul 5, 2015 07:23 Jul 5, 2015 02:53
Sunrise-Sunset Local UTC
Begin Civil Twilight 05:35 01:05
Sunrise 06:01 01:31
Sunset 07:49 15:19
End Civil Twilight 08:15 15:45
VFR
VFR
MVFR
MVFR
IFR
IFR
LIFR
LIFR
Unknown
Unavailable

Current Weather

METAR Observed
OIBL 050200Z 00000KT 4000 HZ NSC 30/27 Q0999 Sun, Jul 5, 2015 @ 02:00 UTC
(53 Minutes ago)
Wind Visibility Conditions
Calm 4,007 m
  • Haze
Temperatures Readings Precipitation
Current Temp
30°C
86°F
Dewpoint
27°C
81°F
Heat Index
39°C
102°
Humidity 84%
Altimeter 29.5" Hg
Sea Level Pressure 999 mb
Field Elevation
14 m
46 ft
None Recorded

Additional weather within a 92.6km radius of OIBL

Map ICAO Location
OIBS 74.8km S/SW (202°)
OIBA 75.9km S/SE (164°)
VFR
VFR
MVFR
MVFR
IFR
IFR
LIFR
LIFR
Unknown
Unavailable
-
-

CheckWX.com is intended as a tool to help pilots better visualize weather data. It is not intended as a substitute for an official weather briefing obtained from a Flight Service Station. CheckWX.com does not meet the FAA requirements for an official pre-flight weather briefing. Therefore, it's important that pilots still call and obtain an official FSS pre-flight weather briefing.

© 2007-2015 CheckWX.com
02:53:48 UTC